Time;durP1;ratioP1;P1;durP2;ratioP2;P2;SDS_P1;SDS_P2;PMS_P1;PMS_P2;Temp;Humidity;BMP_temperature;BMP_pressure;BME280_temperature;BME280_humidity;BME280_pressure;Samples;Min_cycle;Max_cycle;Signal;HPM_P1;HPM_P2
2023/11/18 00:01:35;;;;;;;;;;;;;;;4.37;100.00;100523.13;6274573;22;20288;-82
2023/11/18 00:04:01;;;;;;;;;;;;;;;4.38;100.00;100530.13;6276449;22;20001;-81
2023/11/18 00:06:26;;;;;;;;;;;;;;;4.35;100.00;100524.88;6249426;22;19977;-83
2023/11/18 00:08:51;;;;;;;;;;;;;;;4.36;100.00;100516.16;6276035;22;20362;-85
2023/11/18 00:11:18;;;;;;;;;;;;;;;4.35;100.00;100517.00;6276614;22;20624;-85
2023/11/18 00:13:44;;;;;;;;;;;;;;;4.40;100.00;100512.59;6249534;22;19990;-84
2023/11/18 00:16:12;;;;;;;;;;;;;;;4.36;100.00;100510.91;6274117;22;19973;-87
2023/11/18 00:18:38;;;;;;;;;;;;;;;4.38;100.00;100509.13;6276190;22;19911;-82
2023/11/18 00:21:04;;;;;;;;;;;;;;;4.33;100.00;100508.28;6249312;22;19915;-82
2023/11/18 00:23:30;;;;;;;;;;;;;;;4.27;100.00;100503.94;6249086;22;19957;-83
2023/11/18 00:25:55;;;;;;;;;;;;;;;4.31;100.00;100502.19;6275563;22;19915;-84
2023/11/18 00:28:21;;;;;;;;;;;;;;;4.34;100.00;100496.88;6276368;22;19946;-81
2023/11/18 00:30:46;;;;;;;;;;;;;;;4.33;100.00;100498.66;6274520;22;19922;-80
2023/11/18 00:33:11;;;;;;;;;;;;;;;4.31;100.00;100507.44;6275961;22;19914;-81
2023/11/18 00:35:37;;;;;;;;;;;;;;;4.32;100.00;100498.66;6248914;22;19977;-82
2023/11/18 00:38:02;;;;;;;;;;;;;;;4.30;100.00;100503.06;6275099;22;19941;-81
2023/11/18 00:40:29;;;;;;;;;;;;;;;4.28;100.00;100505.69;6276017;22;20239;-82
2023/11/18 00:42:55;;;;;;;;;;;;;;;4.31;100.00;100504.81;6248899;22;20006;-85
2023/11/18 00:45:20;;;;;;;;;;;;;;;4.28;100.00;100504.81;6275837;22;19950;-85
2023/11/18 00:47:45;;;;;;;;;;;;;;;4.23;100.00;100512.72;6274497;22;20319;-82
2023/11/18 00:50:11;;;;;;;;;;;;;;;4.27;100.00;100524.06;6248919;22;19965;-81
2023/11/18 00:52:41;;;;;;;;;;;;;;;4.30;100.00;100516.19;6275751;22;19907;-82
2023/11/18 00:55:07;;;;;;;;;;;;;;;4.26;100.00;100517.94;6276054;22;19912;-81
2023/11/18 00:57:32;;;;;;;;;;;;;;;4.26;100.00;100519.69;6275933;22;20327;-82
2023/11/18 00:59:58;;;;;;;;;;;;;;;4.33;100.00;100518.78;6275605;22;19915;-82
2023/11/18 01:02:23;;;;;;;;;;;;;;;4.26;100.00;100507.47;6274355;22;20205;-82
2023/11/18 01:04:48;;;;;;;;;;;;;;;4.27;100.00;100503.06;6275855;22;19918;-83
2023/11/18 01:07:14;;;;;;;;;;;;;;;4.27;100.00;100501.31;6275740;22;19994;-83
2023/11/18 01:09:39;;;;;;;;;;;;;;;4.30;100.00;100497.81;6275526;22;19911;-82
2023/11/18 06:18:33;;;;;;;;;;;;;;;4.38;100.00;100419.03;6209847;23;19977;-82
2023/11/18 06:20:58;;;;;;;;;;;;;;;4.38;100.00;100412.03;6216559;23;20385;-80
2023/11/18 06:23:25;;;;;;;;;;;;;;;4.35;100.00;100423.41;6216335;23;19912;-81
2023/11/18 06:25:51;;;;;;;;;;;;;;;4.39;100.00;100428.63;6216912;23;19919;-84
2023/11/18 06:28:16;;;;;;;;;;;;;;;4.39;100.00;100432.16;6216506;23;19908;-81
2023/11/18 06:30:41;;;;;;;;;;;;;;;4.39;100.00;100424.28;6216510;23;19915;-84
2023/11/18 06:33:07;;;;;;;;;;;;;;;4.40;100.00;100426.00;6188430;23;19908;-83
2023/11/18 06:35:34;;;;;;;;;;;;;;;4.37;100.00;100423.41;6216394;23;19916;-81
2023/11/18 06:37:59;;;;;;;;;;;;;;;4.41;100.00;100417.25;6216271;23;20228;-82
2023/11/18 06:40:26;;;;;;;;;;;;;;;4.43;100.00;100406.75;6189762;23;19954;-81
2023/11/18 06:42:54;;;;;;;;;;;;;;;4.46;100.00;100407.59;6216324;23;19912;-82
2023/11/18 06:45:22;;;;;;;;;;;;;;;4.45;100.00;100411.13;6216319;23;19918;-82
2023/11/18 06:47:49;;;;;;;;;;;;;;;4.49;100.00;100418.06;6215091;23;19908;-82
2023/11/18 06:50:15;;;;;;;;;;;;;;;4.47;100.00;100409.34;6216327;23;19990;-81
2023/11/18 06:52:44;;;;;;;;;;;;;;;4.49;100.00;100425.94;6216557;23;19966;-82
2023/11/18 06:55:11;;;;;;;;;;;;;;;4.52;100.00;100417.19;6216742;23;19982;-84
2023/11/18 06:57:36;;;;;;;;;;;;;;;4.50;100.00;100416.31;6216432;23;19907;-83
2023/11/18 07:00:08;;;;;;;;;;;;;;;4.49;100.00;100415.44;6216283;23;19939;-81
2023/11/18 07:02:33;;;;;;;;;;;;;;;4.52;100.00;100414.56;6188333;23;20308;-82
2023/11/18 07:04:58;;;;;;;;;;;;;;;4.50;100.00;100417.19;6216045;23;19935;-82
2023/11/18 07:07:24;;;;;;;;;;;;;;;4.49;100.00;100415.44;6216155;23;19919;-81
2023/11/18 07:09:49;;;;;;;;;;;;;;;4.51;100.00;100404.94;6189791;23;19919;-83
2023/11/18 07:12:15;;;;;;;;;;;;;;;4.45;100.00;100400.63;6216027;23;20378;-83
2023/11/18 07:14:40;;;;;;;;;;;;;;;4.50;100.00;100397.94;6216088;23;20335;-83
2023/11/18 07:17:05;;;;;;;;;;;;;;;4.51;100.00;100404.94;6214597;23;19962;-83
2023/11/18 07:19:33;;;;;;;;;;;;;;;4.53;100.00;100408.41;6215637;23;19935;-82
2023/11/18 07:21:59;;;;;;;;;;;;;;;4.56;100.00;100405.75;6215947;23;20324;-83
2023/11/18 07:24:24;;;;;;;;;;;;;;;4.57;100.00;100411.91;6215704;23;19923;-83
2023/11/18 07:26:51;;;;;;;;;;;;;;;4.57;100.00;100418.00;6215889;23;19912;-84
2023/11/18 07:29:17;;;;;;;;;;;;;;;4.57;100.00;100422.41;6215990;23;19916;-83
2023/11/18 07:31:43;;;;;;;;;;;;;;;4.60;100.00;100423.25;6214212;23;20342;-83
2023/11/18 07:34:08;;;;;;;;;;;;;;;4.58;100.00;100414.53;6215798;23;19916;-82
2023/11/18 07:36:34;;;;;;;;;;;;;;;4.60;100.00;100397.00;6189164;23;19943;-83
2023/11/18 07:39:03;;;;;;;;;;;;;;;4.61;100.00;100397.84;6215839;23;19942;-83
2023/11/18 07:41:28;;;;;;;;;;;;;;;4.60;100.00;100404.00;6215678;23;19927;-84
2023/11/18 07:43:55;;;;;;;;;;;;;;;4.61;100.00;100390.88;6215673;23;19912;-84
2023/11/18 07:46:23;;;;;;;;;;;;;;;4.62;100.00;100405.72;6214094;23;20266;-83
2023/11/18 07:48:49;;;;;;;;;;;;;;;4.61;100.00;100390.88;6215411;23;19914;-84
2023/11/18 07:51:15;;;;;;;;;;;;;;;4.60;100.00;100399.63;6215804;23;19998;-84
2023/11/18 07:53:40;;;;;;;;;;;;;;;4.61;100.00;100392.59;6215678;23;19908;-83
2023/11/18 07:56:07;;;;;;;;;;;;;;;4.65;100.00;100399.59;6215725;23;19985;-84
2023/11/18 07:58:37;;;;;;;;;;;;;;;4.63;100.00;100406.59;6215488;23;19962;-82
2023/11/18 08:01:03;;;;;;;;;;;;;;;4.64;100.00;100409.22;6214720;23;19908;-83
2023/11/18 08:03:31;;;;;;;;;;;;;;;4.67;100.00;100418.81;6215192;23;20006;-84
2023/11/18 08:05:56;;;;;;;;;;;;;;;4.69;100.00;100412.66;6215631;23;19916;-83
2023/11/18 08:08:21;;;;;;;;;;;;;;;4.68;100.00;100417.94;6215569;23;19939;-85
2023/11/18 08:10:48;;;;;;;;;;;;;;;4.67;100.00;100409.16;6215638;23;19939;-84
2023/11/18 08:13:13;;;;;;;;;;;;;;;4.71;100.00;100402.16;6215512;23;20346;-83
2023/11/18 08:15:42;;;;;;;;;;;;;;;4.68;100.00;100389.91;6215500;23;19912;-83
2023/11/18 08:18:10;;;;;;;;;;;;;;;4.72;100.00;100382.88;6213575;23;19974;-85
2023/11/18 08:20:35;;;;;;;;;;;;;;;4.73;100.00;100379.38;6215503;23;19912;-83
2023/11/18 08:23:01;;;;;;;;;;;;;;;4.75;100.00;100380.22;6215291;23;19919;-85
2023/11/18 08:25:26;;;;;;;;;;;;;;;4.76;100.00;100381.13;6215438;23;20239;-84
2023/11/18 08:27:51;;;;;;;;;;;;;;;4.78;100.00;100371.47;6215267;23;19916;-84
2023/11/18 08:30:17;;;;;;;;;;;;;;;4.76;100.00;100374.09;6215424;23;20287;-86
2023/11/18 08:32:44;;;;;;;;;;;;;;;4.78;100.00;100374.94;6213521;23;19915;-84
2023/11/18 08:35:09;;;;;;;;;;;;;;;4.80;100.00;100378.41;6215291;23;19995;-83
2023/11/18 08:37:38;;;;;;;;;;;;;;;4.80;100.00;100372.31;6188186;23;20260;-86
2023/11/18 08:40:06;;;;;;;;;;;;;;;4.84;100.00;100374.03;6215321;23;19939;-83
2023/11/18 08:42:31;;;;;;;;;;;;;;;4.85;100.00;100375.75;6215013;23;19920;-83
2023/11/18 08:44:58;;;;;;;;;;;;;;;4.86;100.00;100382.75;6188909;23;19912;-84
2023/11/18 08:47:24;;;;;;;;;;;;;;;4.91;100.00;100384.47;6213435;23;19912;-84
2023/11/18 08:49:49;;;;;;;;;;;;;;;4.91;100.00;100384.47;6215105;23;19916;-83
2023/11/18 08:52:17;;;;;;;;;;;;;;;4.90;100.00;100389.72;6188810;23;19912;-84
2023/11/18 08:55:17;;;;;;;;;;;;;;;4.94;100.00;100395.81;6215010;23;19950;-81
2023/11/18 08:57:34;;;;;;;;;;;;;;;4.97;100.00;100401.03;6215003;23;20283;-81
2023/11/18 08:59:59;;;;;;;;;;;;;;;4.94;100.00;100408.94;6215314;23;19958;-83
2023/11/18 09:02:24;;;;;;;;;;;;;;;5.02;100.00;100407.09;6213401;23;19943;-84
2023/11/18 09:04:50;;;;;;;;;;;;;;;5.02;100.00;100404.47;6215019;23;19916;-84
2023/11/18 09:07:16;;;;;;;;;;;;;;;5.03;100.00;100400.97;6188880;23;19966;-82
2023/11/18 09:09:41;;;;;;;;;;;;;;;5.04;100.00;100394.81;6214791;23;19934;-83
2023/11/18 09:12:08;;;;;;;;;;;;;;;5.03;100.00;100401.84;6215007;23;19912;-82
2023/11/18 09:14:33;;;;;;;;;;;;;;;5.02;100.00;100412.34;6215053;23;20257;-79
2023/11/18 09:16:59;;;;;;;;;;;;;;;5.05;100.00;100405.31;6214051;23;19923;-83
2023/11/18 09:19:27;;;;;;;;;;;;;;;5.05;100.00;100404.44;6215038;23;19994;-85
2023/11/18 09:21:54;;;;;;;;;;;;;;;5.04;100.00;100408.84;6214691;23;19990;-82
2023/11/18 09:24:24;;;;;;;;;;;;;;;5.09;100.00;100409.66;6214881;23;19912;-83
2023/11/18 09:26:50;;;;;;;;;;;;;;;5.13;100.00;100410.47;6188171;23;19990;-82
2023/11/18 09:29:17;;;;;;;;;;;;;;;5.14;100.00;100409.59;6214840;23;19947;-83
2023/11/18 09:31:43;;;;;;;;;;;;;;;5.17;100.00;100411.31;6213531;23;19986;-83
2023/11/18 09:34:15;;;;;;;;;;;;;;;5.18;100.00;100411.28;6214762;23;19951;-82
2023/11/18 09:36:43;;;;;;;;;;;;;;;5.21;100.00;100410.41;6214673;23;19911;-85
2023/11/18 09:39:08;;;;;;;;;;;;;;;5.21;100.00;100413.91;6214698;23;19923;-83
2023/11/18 09:41:34;;;;;;;;;;;;;;;5.22;100.00;100405.13;6214587;23;20240;-83
2023/11/18 09:44:02;;;;;;;;;;;;;;;5.21;100.00;100400.75;6214599;23;19912;-83
2023/11/18 09:46:32;;;;;;;;;;;;;;;5.24;100.00;100403.34;6212973;23;19927;-83
2023/11/18 09:49:15;;;;;;;;;;;;;;;5.26;100.00;100398.09;6217344;23;19916;-84
2023/11/18 09:51:41;;;;;;;;;;;;;;;5.28;100.00;100399.81;6218064;23;19916;-83
2023/11/18 09:54:15;;;;;;;;;;;;;;;5.30;100.00;100405.06;6217863;23;19918;-83
2023/11/18 09:56:46;;;;;;;;;;;;;;;5.31;100.00;100419.06;6218003;23;19994;-84
2023/11/18 09:59:35;;;;;;;;;;;;;;;5.32;100.00;100420.81;6217969;23;20359;-83
2023/11/18 10:02:02;;;;;;;;;;;;;;;5.32;100.00;100419.03;6189188;23;19912;-83
2023/11/18 10:04:28;;;;;;;;;;;;;;;5.33;100.00;100420.78;6217892;23;20220;-86
2023/11/18 10:06:53;;;;;;;;;;;;;;;5.39;100.00;100414.56;6218086;23;19919;-83
2023/11/18 10:09:28;;;;;;;;;;;;;;;5.39;100.00;100414.56;6191324;23;19912;-87
2023/11/18 10:12:00;;;;;;;;;;;;;;;5.40;100.00;100421.59;6218005;23;19912;-83
2023/11/18 10:14:26;;;;;;;;;;;;;;;5.44;100.00;100410.13;6218078;23;19920;-81
2023/11/18 10:16:53;;;;;;;;;;;;;;;5.42;100.00;100404.88;6216137;23;19946;-81
2023/11/18 10:19:19;;;;;;;;;;;;;;;5.44;100.00;100408.41;6163742;23;19927;-81
2023/11/18 10:21:48;;;;;;;;;;;;;;;5.48;100.00;100406.59;6187703;23;19912;-83
2023/11/18 10:24:19;;;;;;;;;;;;;;;5.48;100.00;100395.22;6187861;23;19967;-82
2023/11/18 10:26:57;;;;;;;;;;;;;;;5.48;100.00;100385.56;6161621;23;19912;-83
2023/11/18 10:29:28;;;;;;;;;;;;;;;5.51;100.00;100384.66;6187771;23;19912;-81
2023/11/18 10:32:07;;;;;;;;;;;;;;;5.54;100.00;100376.75;6186267;23;19935;-81
2023/11/18 10:34:33;;;;;;;;;;;;;;;5.53;100.00;100375.84;6188135;23;19916;-80
2023/11/18 10:37:03;;;;;;;;;;;;;;;5.57;100.00;100372.31;6187694;23;19974;-81
2023/11/18 10:39:31;;;;;;;;;;;;;;;5.60;100.00;100358.22;6187786;23;20260;-81
2023/11/18 10:42:05;;;;;;;;;;;;;;;5.62;100.00;100354.72;6187798;23;19913;-81
2023/11/18 10:44:31;;;;;;;;;;;;;;;5.63;100.00;100340.69;6187703;23;19924;-81
2023/11/18 10:46:59;;;;;;;;;;;;;;;5.66;100.00;100342.38;6185986;23;19928;-81
2023/11/18 10:49:24;;;;;;;;;;;;;;;5.68;100.00;100331.84;6161669;23;19934;-82
2023/11/18 10:51:50;;;;;;;;;;;;;;;5.73;100.00;100325.63;6187727;23;20352;-82
2023/11/18 10:54:17;;;;;;;;;;;;;;;5.73;100.00;100317.75;6187801;23;20283;-80
2023/11/18 10:56:46;;;;;;;;;;;;;;;5.78;100.00;100307.16;6187749;23;19923;-81
2023/11/18 10:59:16;;;;;;;;;;;;;;;5.78;100.00;100310.66;6186682;23;20363;-84
2023/11/18 11:01:44;;;;;;;;;;;;;;;5.80;100.00;100311.50;6184491;23;20355;-83
2023/11/18 11:04:12;;;;;;;;;;;;;;;5.81;100.00;100322.91;6186047;23;19916;-81
2023/11/18 11:06:41;;;;;;;;;;;;;;;5.80;100.00;100323.78;6174227;23;19912;-81
2023/11/18 11:09:09;;;;;;;;;;;;;;;5.81;100.00;100312.38;6185890;23;19916;-81
2023/11/18 11:11:46;;;;;;;;;;;;;;;5.83;100.00;100306.19;6185966;23;19967;-82
2023/11/18 11:14:11;;;;;;;;;;;;;;;5.84;100.00;100307.09;6186335;23;20228;-80
2023/11/18 11:16:37;;;;;;;;;;;;;;;5.84;100.00;100296.56;6184455;23;19923;-81
2023/11/18 11:19:08;;;;;;;;;;;;;;;5.89;100.00;100289.47;6209776;23;20003;-81
2023/11/18 11:21:37;;;;;;;;;;;;;;;5.90;100.00;100280.66;6215790;23;19916;-81
2023/11/18 11:24:12;;;;;;;;;;;;;;;5.92;100.00;100284.16;6215659;23;19916;-80
2023/11/18 11:26:56;;;;;;;;;;;;;;;5.91;100.00;100282.41;6216056;23;19912;-80
2023/11/18 11:29:27;;;;;;;;;;;;;;;5.93;100.00;100279.75;6189718;23;20343;-82
2023/11/18 11:31:57;;;;;;;;;;;;;;;5.98;100.00;100276.19;6214119;23;19912;-81
2023/11/18 11:34:25;;;;;;;;;;;;;;;5.95;100.00;100273.59;6215714;23;19999;-81
2023/11/18 11:36:52;;;;;;;;;;;;;;;5.98;100.00;100265.69;6215832;23;19912;-80
2023/11/18 11:39:25;;;;;;;;;;;;;;;6.00;100.00;100256.00;6215954;23;20251;-81
2023/11/18 11:41:50;;;;;;;;;;;;;;;6.03;100.00;100248.94;6215593;23;19991;-81
2023/11/18 11:44:19;;;;;;;;;;;;;;;6.04;100.00;100241.00;6215734;23;20366;-81
2023/11/18 11:46:45;;;;;;;;;;;;;;;6.05;100.00;100257.66;6187491;23;19912;-82
2023/11/18 11:49:20;;;;;;;;;;;;;;;6.07;100.00;100250.63;6215794;23;20271;-81
2023/11/18 11:52:04;;;;;;;;;;;;;;;6.05;100.00;100255.03;6215656;23;20243;-80
2023/11/18 11:54:36;;;;;;;;;;;;;;;6.07;100.00;100253.25;6215798;23;19916;-82
2023/11/18 11:57:05;;;;;;;;;;;;;;;6.08;100.00;100252.34;6215471;23;19918;-83
2023/11/18 11:59:41;;;;;;;;;;;;;;;6.10;100.00;100255.84;6215951;23;19916;-82
2023/11/18 12:02:09;;;;;;;;;;;;;;;6.12;100.00;100248.78;6213864;23;19969;-82
2023/11/18 12:04:37;;;;;;;;;;;;;;;6.11;100.00;100247.03;6189407;23;20017;-82
2023/11/18 12:07:03;;;;;;;;;;;;;;;6.11;100.00;100244.41;6215357;23;19966;-81
2023/11/18 12:09:37;;;;;;;;;;;;;;;6.10;100.00;100235.66;6215334;23;20240;-81
2023/11/18 12:12:04;;;;;;;;;;;;;;;6.14;100.00;100232.09;6189090;23;19919;-80
2023/11/18 12:14:33;;;;;;;;;;;;;;;6.18;100.00;100217.09;6215768;23;19912;-80
2023/11/18 12:17:13;;;;;;;;;;;;;;;6.16;100.00;100216.28;6213845;23;19943;-81
2023/11/18 12:19:49;;;;;;;;;;;;;;;6.19;100.00;100205.69;6189134;23;19926;-81
2023/11/18 12:22:18;;;;;;;;;;;;;;;6.20;100.00;100202.16;6215510;23;19912;-81
2023/11/18 12:25:06;;;;;;;;;;;;;;;6.21;100.00;100206.53;6215398;23;19983;-82
2023/11/18 12:27:41;;;;;;;;;;;;;;;6.21;100.00;100209.16;6215265;23;20243;-82
2023/11/18 12:30:15;;;;;;;;;;;;;;;6.24;100.00;100211.72;6215340;23;19923;-82
2023/11/18 12:32:56;;;;;;;;;;;;;;;6.27;100.00;100195.88;6213591;23;19912;-82
2023/11/18 12:35:22;;;;;;;;;;;;;;;6.28;100.00;100183.59;6215219;23;19911;-81
2023/11/18 12:37:51;;;;;;;;;;;;;;;6.30;100.00;100181.78;6215312;23;19912;-81
2023/11/18 12:40:26;;;;;;;;;;;;;;;6.31;100.00;100184.38;6215245;23;19916;-81
2023/11/18 12:42:58;;;;;;;;;;;;;;;6.34;100.00;100176.44;6188292;23;19944;-81
2023/11/18 12:45:43;;;;;;;;;;;;;;;6.39;100.00;100172.88;6215152;23;19916;-81
2023/11/18 12:48:11;;;;;;;;;;;;;;;6.39;100.00;100164.97;6213422;23;19948;-82
2023/11/18 12:50:39;;;;;;;;;;;;;;;6.41;100.00;100153.50;6188931;23;19916;-81
2023/11/18 12:53:06;;;;;;;;;;;;;;;6.41;100.00;100155.25;6215066;23;19912;-84
2023/11/18 12:55:32;;;;;;;;;;;;;;;6.43;100.00;100133.28;6215153;23;19912;-82
2023/11/18 12:57:59;;;;;;;;;;;;;;;6.43;100.00;100137.66;6188862;23;19916;-83
2023/11/18 13:00:27;;;;;;;;;;;;;;;6.43;100.00;100124.50;6215412;23;19912;-84
2023/11/18 13:02:53;;;;;;;;;;;;;;;6.46;100.00;100122.69;6213251;23;19912;-83
2023/11/18 13:05:19;;;;;;;;;;;;;;;6.49;100.00;100111.22;6188292;23;19916;-83
2023/11/18 13:07:44;;;;;;;;;;;;;;;6.49;100.00;100098.06;6215112;23;19934;-84
2023/11/18 13:10:15;;;;;;;;;;;;;;;6.50;100.00;100092.75;6214778;23;19990;-83
2023/11/18 13:12:42;;;;;;;;;;;;;;;6.53;100.00;100070.78;6215027;23;19971;-83
2023/11/18 13:15:08;;;;;;;;;;;;;;;6.53;100.00;100053.19;6214959;23;19990;-85
2023/11/18 13:17:33;;;;;;;;;;;;;;;6.57;100.00;100046.09;6213418;23;20416;-83
2023/11/18 13:20:12;;;;;;;;;;;;;;;6.55;100.00;100058.44;6214947;23;19916;-85
2023/11/18 13:22:39;;;;;;;;;;;;;;;6.60;100.00;100048.66;6214257;23;19911;-80
2023/11/18 13:25:05;;;;;;;;;;;;;;;6.62;100.00;100067.94;6214852;23;20371;-81
2023/11/18 13:27:32;;;;;;;;;;;;;;;6.65;100.00;100059.97;6214808;23;20349;-83
2023/11/18 13:29:58;;;;;;;;;;;;;;;6.64;100.00;100062.66;6214734;23;19922;-83
2023/11/18 13:32:25;;;;;;;;;;;;;;;6.63;100.00;100067.03;6213250;23;19912;-82
2023/11/18 13:34:51;;;;;;;;;;;;;;;6.66;100.00;100060.84;6214584;23;19923;-82
2023/11/18 13:37:17;;;;;;;;;;;;;;;6.68;100.00;100053.75;6214807;23;20236;-82
2023/11/18 13:39:47;;;;;;;;;;;;;;;6.64;100.00;100045.06;6214733;23;20390;-81
2023/11/18 13:42:27;;;;;;;;;;;;;;;6.66;100.00;100043.25;6214584;23;19916;-81
2023/11/18 13:44:53;;;;;;;;;;;;;;;6.68;100.00;100051.97;6214717;23;19919;-84
2023/11/18 13:47:19;;;;;;;;;;;;;;;6.73;100.00;100062.41;6213091;23;19912;-81
2023/11/18 13:49:45;;;;;;;;;;;;;;;6.72;100.00;100061.56;6188339;23;19990;-83
2023/11/18 13:52:15;;;;;;;;;;;;;;;6.76;100.00;100058.84;6214683;23;19914;-82
2023/11/18 13:54:42;;;;;;;;;;;;;;;6.76;100.00;100058.84;6214787;23;19916;-81
2023/11/18 13:57:09;;;;;;;;;;;;;;;6.75;100.00;100055.38;6214642;23;19995;-84
2023/11/18 13:59:34;;;;;;;;;;;;;;;6.80;100.00;100071.06;6214697;23;19951;-83
2023/11/18 14:02:04;;;;;;;;;;;;;;;6.84;100.00;100075.34;6213451;23;19911;-86
2023/11/18 14:04:29;;;;;;;;;;;;;;;6.84;100.00;100070.94;6214481;23;19916;-83
2023/11/18 14:07:00;;;;;;;;;;;;;;;6.85;100.00;100069.19;6214625;23;19919;-81
2023/11/18 14:09:26;;;;;;;;;;;;;;;6.85;100.00;100053.38;6214822;23;19916;-81
2023/11/18 14:11:52;;;;;;;;;;;;;;;6.88;100.00;100046.28;6188428;23;19943;-80
2023/11/18 14:14:17;;;;;;;;;;;;;;;6.90;100.00;100049.72;6214758;23;19920;-82
2023/11/18 14:16:43;;;;;;;;;;;;;;;6.91;100.00;100053.25;6212965;23;19916;-81
2023/11/18 14:19:08;;;;;;;;;;;;;;;6.90;100.00;100054.13;6214286;23;20363;-81
2023/11/18 14:21:34;;;;;;;;;;;;;;;6.94;100.00;100052.28;6214423;23;19991;-81
2023/11/18 14:24:03;;;;;;;;;;;;;;;6.96;100.00;100053.16;6214416;23;19912;-80
2023/11/18 14:26:29;;;;;;;;;;;;;;;6.98;100.00;100046.91;6214559;23;19918;-80
2023/11/18 14:28:54;;;;;;;;;;;;;;;6.99;100.00;100038.13;6214592;23;20003;-80
2023/11/18 14:31:19;;;;;;;;;;;;;;;7.03;100.00;100028.38;6186194;23;20320;-81
2023/11/18 14:33:47;;;;;;;;;;;;;;;7.04;100.00;100017.78;6214399;23;20387;-81
2023/11/18 14:36:12;;;;;;;;;;;;;;;7.07;100.00;100009.81;6216423;23;19944;-81
2023/11/18 14:38:37;;;;;;;;;;;;;;;7.07;100.00;100014.22;6216451;23;19920;-81
2023/11/18 14:41:04;;;;;;;;;;;;;;;7.03;100.00;100008.13;6216775;23;19908;-81
2023/11/18 14:43:29;;;;;;;;;;;;;;;7.09;100.00;100000.09;6216556;23;19912;-80
2023/11/18 14:45:55;;;;;;;;;;;;;;;7.13;100.00;99989.47;6216211;23;19940;-81
2023/11/18 14:48:20;;;;;;;;;;;;;;;7.14;100.00;99985.94;6214653;23;19958;-81
2023/11/18 14:50:45;;;;;;;;;;;;;;;7.16;100.00;99978.84;6216335;23;19943;-81
2023/11/18 14:53:10;;;;;;;;;;;;;;;7.16;100.00;99977.06;6215912;23;19912;-81
2023/11/18 14:55:36;;;;;;;;;;;;;;;7.17;100.00;99970.06;6216499;23;19944;-81
2023/11/18 14:58:04;;;;;;;;;;;;;;;7.17;100.00;99962.16;6189851;23;19916;-83
2023/11/18 15:00:31;;;;;;;;;;;;;;;7.16;100.00;99956.00;6216031;23;19916;-81
2023/11/18 15:02:57;;;;;;;;;;;;;;;7.17;100.00;99951.59;6214408;23;19920;-81
2023/11/18 15:05:22;;;;;;;;;;;;;;;7.18;100.00;99940.13;6216010;23;19919;-81
2023/11/18 15:07:49;;;;;;;;;;;;;;;7.21;100.00;99933.03;6216045;23;19916;-80
2023/11/18 15:10:19;;;;;;;;;;;;;;;7.22;100.00;99928.63;6216331;23;19947;-81
2023/11/18 15:12:45;;;;;;;;;;;;;;;7.26;100.00;99930.28;6215959;23;19958;-81
2023/11/18 15:15:18;;;;;;;;;;;;;;;7.28;100.00;99925.81;6189389;23;19916;-81
2023/11/18 15:17:48;;;;;;;;;;;;;;;7.29;100.00;99924.91;6214256;23;19923;-82
2023/11/18 15:20:14;;;;;;;;;;;;;;;7.32;100.00;99919.53;6215904;23;20351;-81
2023/11/18 15:22:42;;;;;;;;;;;;;;;7.33;100.00;99916.00;6216168;23;19912;-81
2023/11/18 15:25:11;;;;;;;;;;;;;;;7.35;100.00;99919.47;6215858;23;19912;-82
2023/11/18 15:27:38;;;;;;;;;;;;;;;7.37;100.00;99922.06;6215678;23;19919;-82
2023/11/18 15:30:04;;;;;;;;;;;;;;;7.37;100.00;99915.03;6215689;23;19919;-82
2023/11/18 15:32:30;;;;;;;;;;;;;;;7.35;100.00;99922.09;6214135;23;19987;-79
2023/11/18 15:34:57;;;;;;;;;;;;;;;7.39;100.00;99917.63;6215934;23;19947;-82
2023/11/18 15:37:23;;;;;;;;;;;;;;;7.43;100.00;99919.25;6215782;23;19919;-82
2023/11/18 15:39:48;;;;;;;;;;;;;;;7.41;100.00;99903.47;6189354;23;20621;-82
2023/11/18 15:42:13;;;;;;;;;;;;;;;7.43;100.00;99893.75;6215797;23;19912;-82
2023/11/18 15:44:39;;;;;;;;;;;;;;;7.46;100.00;99877.00;6215604;23;19919;-81
2023/11/18 15:47:04;;;;;;;;;;;;;;;7.48;100.00;99879.59;6187673;23;19970;-81
2023/11/18 15:49:30;;;;;;;;;;;;;;;7.46;100.00;99884.91;6189001;23;19916;-81
2023/11/18 15:51:55;;;;;;;;;;;;;;;7.50;100.00;99875.13;6215685;23;19912;-81
2023/11/18 15:54:20;;;;;;;;;;;;;;;7.50;100.00;99854.03;6215536;23;19923;-82
2023/11/18 15:56:45;;;;;;;;;;;;;;;7.50;100.00;99849.66;6215346;23;20363;-82
2023/11/18 15:59:11;;;;;;;;;;;;;;;7.53;100.00;99861.84;6215393;23;19930;-82
2023/11/18 16:01:36;;;;;;;;;;;;;;;7.52;100.00;99846.97;6214033;23;20386;-82
2023/11/18 16:04:02;;;;;;;;;;;;;;;7.54;100.00;99856.53;6189192;23;19923;-82
2023/11/18 16:06:27;;;;;;;;;;;;;;;7.58;100.00;99846.78;6215573;23;19916;-81
2023/11/18 16:08:53;;;;;;;;;;;;;;;7.56;100.00;99848.56;6215405;23;19998;-82
2023/11/18 16:11:18;;;;;;;;;;;;;;;7.59;100.00;99867.81;6215658;23;19915;-83
2023/11/18 16:13:43;;;;;;;;;;;;;;;7.58;100.00;99874.00;6215286;23;20236;-82
2023/11/18 16:16:08;;;;;;;;;;;;;;;7.60;100.00;99863.41;6213904;23;19912;-82
2023/11/18 16:18:34;;;;;;;;;;;;;;;7.59;100.00;99848.50;6188776;23;19923;-83
2023/11/18 16:21:03;;;;;;;;;;;;;;;7.62;100.00;99848.41;6215193;23;19966;-84
2023/11/18 16:23:34;;;;;;;;;;;;;;;7.61;100.00;99847.56;6215157;23;19915;-82
2023/11/18 16:26:00;;;;;;;;;;;;;;;7.65;100.00;99832.50;6215723;23;20230;-83
2023/11/18 16:28:27;;;;;;;;;;;;;;;7.66;100.00;99822.78;6215126;23;20315;-83
2023/11/18 16:30:52;;;;;;;;;;;;;;;7.68;100.00;99826.28;6215307;23;19912;-87
2023/11/18 16:33:18;;;;;;;;;;;;;;;7.70;100.00;99830.56;6187525;23;19927;-82
2023/11/18 16:35:44;;;;;;;;;;;;;;;7.72;100.00;99836.69;6215253;23;19918;-81
2023/11/18 16:38:10;;;;;;;;;;;;;;;7.76;100.00;99835.66;6215133;23;19943;-83
2023/11/18 16:40:36;;;;;;;;;;;;;;;7.75;100.00;99823.38;6188442;23;19919;-83
2023/11/18 16:43:01;;;;;;;;;;;;;;;7.77;100.00;99826.84;6214918;23;19912;-83
2023/11/18 16:45:26;;;;;;;;;;;;;;;7.77;100.00;99821.56;6215110;23;19936;-82
2023/11/18 16:47:52;;;;;;;;;;;;;;;7.80;100.00;99826.75;6213445;23;19912;-82
2023/11/18 16:50:18;;;;;;;;;;;;;;;7.85;100.00;99817.81;6215040;23;19916;-83
2023/11/18 16:52:43;;;;;;;;;;;;;;;7.81;100.00;99815.28;6215170;23;19912;-83
2023/11/18 16:55:09;;;;;;;;;;;;;;;7.80;100.00;99808.28;6188553;23;19911;-83
2023/11/18 16:57:35;;;;;;;;;;;;;;;7.84;100.00;99800.28;6214373;23;20277;-81
2023/11/18 17:00:16;;;;;;;;;;;;;;;7.85;100.00;99802.00;6215098;23;19912;-82
2023/11/18 17:02:46;;;;;;;;;;;;;;;7.85;100.00;99807.25;6186599;23;19920;-83
2023/11/18 17:05:12;;;;;;;;;;;;;;;7.87;100.00;99806.31;6214941;23;19987;-82
2023/11/18 17:07:37;;;;;;;;;;;;;;;7.88;100.00;99791.34;6214601;23;19939;-80
2023/11/18 17:10:06;;;;;;;;;;;;;;;7.91;100.00;99783.34;6214535;23;19991;-81
2023/11/18 17:12:32;;;;;;;;;;;;;;;7.89;100.00;99769.34;6188358;23;19915;-80
2023/11/18 17:14:57;;;;;;;;;;;;;;;7.91;100.00;99784.19;6214670;23;19911;-80
2023/11/18 17:17:23;;;;;;;;;;;;;;;7.92;100.00;99782.44;6212933;23;19912;-81
2023/11/18 17:19:49;;;;;;;;;;;;;;;7.92;100.00;99771.88;6214937;23;19991;-81
2023/11/18 17:22:14;;;;;;;;;;;;;;;7.93;100.00;99769.19;6188155;23;19912;-82
2023/11/18 17:24:40;;;;;;;;;;;;;;;7.95;100.00;99750.69;6214578;23;19919;-81
2023/11/18 17:27:06;;;;;;;;;;;;;;;7.94;100.00;99744.50;6214822;23;19992;-84
2023/11/18 17:29:32;;;;;;;;;;;;;;;7.96;100.00;99728.63;6214809;23;19916;-83
2023/11/18 17:31:57;;;;;;;;;;;;;;;7.99;100.00;99768.13;6213126;23;19982;-82
2023/11/18 17:34:22;;;;;;;;;;;;;;;8.01;100.00;99792.69;6214743;23;19912;-80
2023/11/18 17:36:47;;;;;;;;;;;;;;;8.02;100.00;99797.03;6214728;23;19919;-81
2023/11/18 17:39:14;;;;;;;;;;;;;;;8.04;100.00;99805.78;6214722;23;19916;-80
2023/11/18 17:41:39;;;;;;;;;;;;;;;8.04;100.00;99808.44;6214996;23;19916;-79
2023/11/18 17:44:05;;;;;;;;;;;;;;;8.06;100.00;99805.72;6188099;23;20217;-81
2023/11/18 17:46:30;;;;;;;;;;;;;;;8.08;100.00;99814.47;6213062;23;20349;-81